sensor_id;sensor_type;location;lat;lon;timestamp;pressure;altitude;pressure_sealevel;temperature;humidity
71344;BME280;59146;43.850;25.948;2022-09-14T00:00:55;100838.59;;;16.61;56.79
71344;BME280;59146;43.850;25.948;2022-09-14T00:03:20;100817.53;;;16.50;56.87
71344;BME280;59146;43.850;25.948;2022-09-14T00:05:46;100872.63;;;16.76;57.41
71344;BME280;59146;43.850;25.948;2022-09-14T00:08:12;100889.88;;;16.80;57.66
71344;BME280;59146;43.850;25.948;2022-09-14T00:10:40;100742.91;;;15.95;57.73
71344;BME280;59146;43.850;25.948;2022-09-14T00:13:06;100841.47;;;16.47;57.66
71344;BME280;59146;43.850;25.948;2022-09-14T00:15:37;100846.63;;;16.71;57.31
71344;BME280;59146;43.850;25.948;2022-09-14T00:18:03;100890.34;;;16.85;57.79
71344;BME280;59146;43.850;25.948;2022-09-14T00:20:29;100884.84;;;16.77;57.77
71344;BME280;59146;43.850;25.948;2022-09-14T00:22:55;100867.16;;;16.56;57.75
71344;BME280;59146;43.850;25.948;2022-09-14T00:25:21;100852.13;;;16.35;58.07
71344;BME280;59146;43.850;25.948;2022-09-14T00:27:46;100848.69;;;16.23;58.40
71344;BME280;59146;43.850;25.948;2022-09-14T00:30:12;100884.84;;;16.32;58.44
71344;BME280;59146;43.850;25.948;2022-09-14T00:32:37;100860.66;;;16.27;58.08
71344;BME280;59146;43.850;25.948;2022-09-14T00:35:03;100876.81;;;16.34;58.17
71344;BME280;59146;43.850;25.948;2022-09-14T00:37:29;100889.91;;;16.35;57.99
71344;BME280;59146;43.850;25.948;2022-09-14T00:39:54;100887.75;;;16.51;57.33
71344;BME280;59146;43.850;25.948;2022-09-14T00:42:19;100867.38;;;16.31;57.53
71344;BME280;59146;43.850;25.948;2022-09-14T00:47:11;100886.06;;;16.39;57.33
71344;BME280;59146;43.850;25.948;2022-09-14T00:49:39;100854.78;;;16.13;57.29
71344;BME280;59146;43.850;25.948;2022-09-14T00:54:35;100889.66;;;16.16;57.64
71344;BME280;59146;43.850;25.948;2022-09-14T00:57:01;100835.72;;;15.76;57.85
71344;BME280;59146;43.850;25.948;2022-09-14T00:59:31;100863.97;;;15.96;57.86
71344;BME280;59146;43.850;25.948;2022-09-14T01:01:58;100914.19;;;16.28;57.31
71344;BME280;59146;43.850;25.948;2022-09-14T01:04:24;100851.75;;;15.84;57.39
71344;BME280;59146;43.850;25.948;2022-09-14T01:07:02;100920.44;;;16.27;57.07
71344;BME280;59146;43.850;25.948;2022-09-14T01:09:48;100918.88;;;16.24;57.08
71344;BME280;59146;43.850;25.948;2022-09-14T01:23:07;100906.66;;;16.23;57.12
71344;BME280;59146;43.850;25.948;2022-09-14T01:25:55;100917.31;;;16.11;57.25
71344;BME280;59146;43.850;25.948;2022-09-14T01:28:40;100875.09;;;15.77;57.69
71344;BME280;59146;43.850;25.948;2022-09-14T01:36:33;100892.25;;;16.05;57.53
71344;BME280;59146;43.850;25.948;2022-09-14T01:39:01;100871.28;;;15.93;57.63
71344;BME280;59146;43.850;25.948;2022-09-14T01:41:27;100837.50;;;15.75;57.37
71344;BME280;59146;43.850;25.948;2022-09-14T01:44:08;100892.41;;;16.15;57.31
71344;BME280;59146;43.850;25.948;2022-09-14T01:46:43;100792.81;;;15.63;57.39
71344;BME280;59146;43.850;25.948;2022-09-14T01:49:17;100847.22;;;15.97;57.36
71344;BME280;59146;43.850;25.948;2022-09-14T01:51:47;100836.81;;;15.96;57.34
71344;BME280;59146;43.850;25.948;2022-09-14T01:54:42;100873.13;;;16.25;57.22
71344;BME280;59146;43.850;25.948;2022-09-14T01:57:18;100825.91;;;15.89;57.25
71344;BME280;59146;43.850;25.948;2022-09-14T01:59:48;100827.31;;;15.82;57.51
71344;BME280;59146;43.850;25.948;2022-09-14T02:02:19;100876.44;;;16.05;57.50
71344;BME280;59146;43.850;25.948;2022-09-14T02:04:53;100846.25;;;15.87;57.29
71344;BME280;59146;43.850;25.948;2022-09-14T02:07:22;100868.53;;;15.94;57.57
71344;BME280;59146;43.850;25.948;2022-09-14T02:09:49;100833.16;;;15.63;58.09
71344;BME280;59146;43.850;25.948;2022-09-14T02:12:15;100871.28;;;15.93;58.12
71344;BME280;59146;43.850;25.948;2022-09-14T02:14:42;100848.88;;;15.76;58.10
71344;BME280;59146;43.850;25.948;2022-09-14T02:17:09;100865.78;;;15.96;57.92
71344;BME280;59146;43.850;25.948;2022-09-14T02:19:46;100762.13;;;15.29;57.72
71344;BME280;59146;43.850;25.948;2022-09-14T02:22:12;100849.84;;;15.86;58.13
71344;BME280;59146;43.850;25.948;2022-09-14T02:24:38;100847.22;;;15.75;57.84
71344;BME280;59146;43.850;25.948;2022-09-14T02:27:06;100810.88;;;15.56;57.37
71344;BME280;59146;43.850;25.948;2022-09-14T02:29:32;100811.13;;;15.53;57.50
71344;BME280;59146;43.850;25.948;2022-09-14T02:32:21;100815.09;;;15.48;57.79
71344;BME280;59146;43.850;25.948;2022-09-14T02:40:32;100840.47;;;15.36;58.36
71344;BME280;59146;43.850;25.948;2022-09-14T02:50:49;100872.53;;;15.54;58.18
71344;BME280;59146;43.850;25.948;2022-09-14T02:56:05;100875.03;;;15.32;58.77
71344;BME280;59146;43.850;25.948;2022-09-14T02:58:41;100844.28;;;14.97;59.45
71344;BME280;59146;43.850;25.948;2022-09-14T03:01:08;100860.81;;;15.10;59.33
71344;BME280;59146;43.850;25.948;2022-09-14T03:03:34;100884.56;;;15.22;58.99
71344;BME280;59146;43.850;25.948;2022-09-14T03:06:00;100875.28;;;15.29;58.65
71344;BME280;59146;43.850;25.948;2022-09-14T03:08:27;100735.53;;;14.51;58.61
71344;BME280;59146;43.850;25.948;2022-09-14T03:10:52;100859.16;;;15.09;58.80
71344;BME280;59146;43.850;25.948;2022-09-14T03:13:18;100888.03;;;15.22;58.85
71344;BME280;59146;43.850;25.948;2022-09-14T03:15:44;100847.66;;;14.99;58.89
71344;BME280;59146;43.850;25.948;2022-09-14T03:18:09;100894.03;;;15.24;59.00
71344;BME280;59146;43.850;25.948;2022-09-14T03:20:36;100824.97;;;14.86;58.84
71344;BME280;59146;43.850;25.948;2022-09-14T03:23:02;100843.72;;;15.05;58.79
71344;BME280;59146;43.850;25.948;2022-09-14T03:25:29;100833.59;;;14.88;59.04
71344;BME280;59146;43.850;25.948;2022-09-14T03:27:57;100901.69;;;15.27;58.90
71344;BME280;59146;43.850;25.948;2022-09-14T03:30:24;100845.22;;;14.96;59.20
71344;BME280;59146;43.850;25.948;2022-09-14T03:32:50;100841.06;;;14.81;59.54
71344;BME280;59146;43.850;25.948;2022-09-14T03:35:16;100874.31;;;15.06;59.12
71344;BME280;59146;43.850;25.948;2022-09-14T03:37:43;100892.31;;;15.12;59.29
71344;BME280;59146;43.850;25.948;2022-09-14T03:40:11;100900.34;;;15.22;59.17
71344;BME280;59146;43.850;25.948;2022-09-14T03:42:46;100904.56;;;15.24;59.03
71344;BME280;59146;43.850;25.948;2022-09-14T03:45:13;100879.50;;;15.19;59.03
71344;BME280;59146;43.850;25.948;2022-09-14T03:47:39;100898.72;;;15.32;59.09
71344;BME280;59146;43.850;25.948;2022-09-14T03:50:06;100908.66;;;15.28;59.46
71344;BME280;59146;43.850;25.948;2022-09-14T03:52:33;100864.53;;;14.84;59.61
71344;BME280;59146;43.850;25.948;2022-09-14T03:54:59;100923.38;;;15.31;59.50
71344;BME280;59146;43.850;25.948;2022-09-14T03:57:25;100857.59;;;15.07;58.91
71344;BME280;59146;43.850;25.948;2022-09-14T03:59:50;100920.59;;;15.45;58.70
71344;BME280;59146;43.850;25.948;2022-09-14T04:02:16;100922.19;;;15.35;59.17
71344;BME280;59146;43.850;25.948;2022-09-14T04:04:41;100924.47;;;15.52;58.36
71344;BME280;59146;43.850;25.948;2022-09-14T04:07:07;100859.66;;;15.14;58.68
71344;BME280;59146;43.850;25.948;2022-09-14T04:09:32;100863.00;;;15.40;58.17
71344;BME280;59146;43.850;25.948;2022-09-14T04:11:58;100909.06;;;16.71;55.33
71344;BME280;59146;43.850;25.948;2022-09-14T04:14:24;100865.97;;;17.76;51.58
71344;BME280;59146;43.850;25.948;2022-09-14T04:16:49;100898.84;;;19.23;48.52
71344;BME280;59146;43.850;25.948;2022-09-14T04:19:15;100887.09;;;19.93;46.21
71344;BME280;59146;43.850;25.948;2022-09-14T04:21:40;100826.63;;;20.42;44.00
71344;BME280;59146;43.850;25.948;2022-09-14T04:24:05;100907.59;;;21.46;42.70
71344;BME280;59146;43.850;25.948;2022-09-14T04:26:31;100914.09;;;22.12;41.03
71344;BME280;59146;43.850;25.948;2022-09-14T04:28:57;100917.28;;;23.25;38.92
71344;BME280;59146;43.850;25.948;2022-09-14T04:31:23;100869.84;;;23.36;37.55
71344;BME280;59146;43.850;25.948;2022-09-14T04:33:49;100900.97;;;24.16;36.41
71344;BME280;59146;43.850;25.948;2022-09-14T04:36:19;100861.84;;;24.86;34.82
71344;BME280;59146;43.850;25.948;2022-09-14T04:38:45;100928.06;;;25.75;33.75
71344;BME280;59146;43.850;25.948;2022-09-14T04:41:16;100930.03;;;25.58;33.79
71344;BME280;59146;43.850;25.948;2022-09-14T04:43:43;100875.09;;;26.22;32.77
71344;BME280;59146;43.850;25.948;2022-09-14T04:46:18;100933.44;;;26.27;32.31
71344;BME280;59146;43.850;25.948;2022-09-14T04:48:43;100907.03;;;26.24;32.31
71344;BME280;59146;43.850;25.948;2022-09-14T04:51:18;100897.50;;;25.69;32.88
71344;BME280;59146;43.850;25.948;2022-09-14T04:53:46;100867.06;;;25.85;32.66
71344;BME280;59146;43.850;25.948;2022-09-14T04:56:13;100901.66;;;26.67;32.05
71344;BME280;59146;43.850;25.948;2022-09-14T04:58:42;100899.63;;;26.69;31.42
71344;BME280;59146;43.850;25.948;2022-09-14T05:01:11;100877.63;;;26.89;31.15
71344;BME280;59146;43.850;25.948;2022-09-14T05:03:37;100899.47;;;27.07;31.29
71344;BME280;59146;43.850;25.948;2022-09-14T05:06:08;100895.41;;;27.32;30.63
71344;BME280;59146;43.850;25.948;2022-09-14T05:08:34;100911.81;;;26.87;31.63
71344;BME280;59146;43.850;25.948;2022-09-14T05:11:02;100885.13;;;27.14;30.57
71344;BME280;59146;43.850;25.948;2022-09-14T05:13:27;100885.88;;;27.44;30.31
71344;BME280;59146;43.850;25.948;2022-09-14T05:15:53;100895.97;;;27.06;31.00
71344;BME280;59146;43.850;25.948;2022-09-14T05:18:19;100897.97;;;26.68;31.99
71344;BME280;59146;43.850;25.948;2022-09-14T05:20:44;100932.44;;;26.57;32.58
71344;BME280;59146;43.850;25.948;2022-09-14T05:23:10;100923.38;;;25.91;33.42
71344;BME280;59146;43.850;25.948;2022-09-14T05:25:36;100886.72;;;25.09;34.53
71344;BME280;59146;43.850;25.948;2022-09-14T05:28:01;100907.53;;;25.22;35.16
71344;BME280;59146;43.850;25.948;2022-09-14T05:30:27;100856.31;;;24.88;35.17
71344;BME280;59146;43.850;25.948;2022-09-14T05:32:52;100920.22;;;25.28;34.90
71344;BME280;59146;43.850;25.948;2022-09-14T05:35:18;100870.66;;;24.87;35.33
71344;BME280;59146;43.850;25.948;2022-09-14T05:37:43;100908.91;;;24.87;36.03
71344;BME280;59146;43.850;25.948;2022-09-14T05:40:09;100923.78;;;24.35;36.96
71344;BME280;59146;43.850;25.948;2022-09-14T05:42:34;100891.00;;;23.70;38.00
71344;BME280;59146;43.850;25.948;2022-09-14T05:45:00;100938.94;;;22.72;40.31
71344;BME280;59146;43.850;25.948;2022-09-14T05:47:29;100903.19;;;21.19;43.50
71344;BME280;59146;43.850;25.948;2022-09-14T05:49:54;100948.50;;;21.17;44.71
71344;BME280;59146;43.850;25.948;2022-09-14T05:52:20;100900.75;;;20.53;45.70
71344;BME280;59146;43.850;25.948;2022-09-14T05:54:45;100962.69;;;20.35;47.24
71344;BME280;59146;43.850;25.948;2022-09-14T05:57:11;100909.16;;;19.93;47.98
71344;BME280;59146;43.850;25.948;2022-09-14T05:59:36;100914.78;;;19.42;48.82
71344;BME280;59146;43.850;25.948;2022-09-14T06:02:02;100957.78;;;19.25;50.27
71344;BME280;59146;43.850;25.948;2022-09-14T06:04:28;100935.06;;;19.03;51.07
71344;BME280;59146;43.850;25.948;2022-09-14T06:06:53;100973.16;;;18.82;52.62
71344;BME280;59146;43.850;25.948;2022-09-14T06:09:18;100895.22;;;18.56;52.60
71344;BME280;59146;43.850;25.948;2022-09-14T06:11:44;100913.63;;;18.67;54.73
71344;BME280;59146;43.850;25.948;2022-09-14T06:14:09;100970.19;;;19.06;55.17
71344;BME280;59146;43.850;25.948;2022-09-14T06:16:35;100971.09;;;19.44;52.24
71344;BME280;59146;43.850;25.948;2022-09-14T06:19:00;100988.94;;;20.28;49.81
71344;BME280;59146;43.850;25.948;2022-09-14T06:21:31;100982.00;;;21.46;47.62
71344;BME280;59146;43.850;25.948;2022-09-14T06:23:57;100932.94;;;21.93;44.89
71344;BME280;59146;43.850;25.948;2022-09-14T06:26:23;100956.75;;;22.20;45.94
71344;BME280;59146;43.850;25.948;2022-09-14T06:28:49;100880.84;;;22.42;44.46
71344;BME280;59146;43.850;25.948;2022-09-14T06:31:15;100937.19;;;22.97;43.94
71344;BME280;59146;43.850;25.948;2022-09-14T06:33:45;100942.72;;;23.19;42.31
71344;BME280;59146;43.850;25.948;2022-09-14T06:36:14;100940.59;;;23.23;42.66
71344;BME280;59146;43.850;25.948;2022-09-14T06:38:40;100951.31;;;23.55;41.16
71344;BME280;59146;43.850;25.948;2022-09-14T06:41:08;100969.19;;;23.71;40.71
71344;BME280;59146;43.850;25.948;2022-09-14T06:43:36;100989.47;;;23.47;40.43
71344;BME280;59146;43.850;25.948;2022-09-14T06:48:51;100954.84;;;23.63;41.02
71344;BME280;59146;43.850;25.948;2022-09-14T06:51:26;100968.34;;;23.62;38.93
71344;BME280;59146;43.850;25.948;2022-09-14T06:53:55;100989.34;;;23.89;38.76
71344;BME280;59146;43.850;25.948;2022-09-14T06:56:20;100980.19;;;24.00;39.06
71344;BME280;59146;43.850;25.948;2022-09-14T06:58:46;100932.13;;;24.32;38.82
71344;BME280;59146;43.850;25.948;2022-09-14T07:01:14;100955.69;;;24.20;39.59
71344;BME280;59146;43.850;25.948;2022-09-14T07:03:40;100972.34;;;24.22;39.96
71344;BME280;59146;43.850;25.948;2022-09-14T07:06:11;100924.19;;;23.84;40.07
71344;BME280;59146;43.850;25.948;2022-09-14T07:08:38;100912.47;;;23.93;38.67
71344;BME280;59146;43.850;25.948;2022-09-14T07:11:07;100902.97;;;23.90;38.59
71344;BME280;59146;43.850;25.948;2022-09-14T07:13:33;100975.38;;;24.11;39.28
71344;BME280;59146;43.850;25.948;2022-09-14T07:15:58;100944.84;;;24.06;39.15
71344;BME280;59146;43.850;25.948;2022-09-14T07:18:25;100968.53;;;24.25;39.97
71344;BME280;59146;43.850;25.948;2022-09-14T07:21:04;100919.00;;;23.66;38.55
71344;BME280;59146;43.850;25.948;2022-09-14T07:23:31;100940.00;;;24.09;37.74
71344;BME280;59146;43.850;25.948;2022-09-14T07:26:01;100937.31;;;24.17;38.39
71344;BME280;59146;43.850;25.948;2022-09-14T07:28:28;100950.16;;;24.22;37.90
71344;BME280;59146;43.850;25.948;2022-09-14T07:30:53;100867.34;;;23.75;38.23
71344;BME280;59146;43.850;25.948;2022-09-14T07:33:19;100888.50;;;23.77;38.26
71344;BME280;59146;43.850;25.948;2022-09-14T07:35:44;100906.66;;;24.05;38.01
71344;BME280;59146;43.850;25.948;2022-09-14T07:38:10;100948.41;;;24.53;37.70
71344;BME280;59146;43.850;25.948;2022-09-14T07:40:35;100950.94;;;24.38;37.31
71344;BME280;59146;43.850;25.948;2022-09-14T07:43:01;100927.84;;;24.15;37.65
71344;BME280;59146;43.850;25.948;2022-09-14T07:45:26;100933.06;;;24.47;36.63
71344;BME280;59146;43.850;25.948;2022-09-14T07:47:51;100934.94;;;24.93;35.93
71344;BME280;59146;43.850;25.948;2022-09-14T07:50:17;100967.00;;;24.22;39.19
71344;BME280;59146;43.850;25.948;2022-09-14T07:52:43;100952.19;;;23.96;37.15
71344;BME280;59146;43.850;25.948;2022-09-14T07:55:08;100904.31;;;24.10;37.97
71344;BME280;59146;43.850;25.948;2022-09-14T07:57:36;100943.66;;;24.24;36.89
71344;BME280;59146;43.850;25.948;2022-09-14T08:00:02;100815.63;;;23.84;36.73
71344;BME280;59146;43.850;25.948;2022-09-14T08:02:28;100884.31;;;24.06;37.08
71344;BME280;59146;43.850;25.948;2022-09-14T08:04:54;100924.41;;;24.45;37.78
71344;BME280;59146;43.850;25.948;2022-09-14T08:07:19;100928.69;;;23.75;37.50
71344;BME280;59146;43.850;25.948;2022-09-14T08:09:45;100953.88;;;24.13;38.68
71344;BME280;59146;43.850;25.948;2022-09-14T08:12:12;100906.69;;;23.73;37.82
71344;BME280;59146;43.850;25.948;2022-09-14T08:14:40;100915.31;;;23.59;39.07
71344;BME280;59146;43.850;25.948;2022-09-14T08:17:05;100955.19;;;23.77;38.82
71344;BME280;59146;43.850;25.948;2022-09-14T08:19:31;100916.50;;;23.48;38.92
71344;BME280;59146;43.850;25.948;2022-09-14T08:21:56;100926.25;;;23.24;39.19
71344;BME280;59146;43.850;25.948;2022-09-14T08:24:22;100893.59;;;23.14;39.57
71344;BME280;59146;43.850;25.948;2022-09-14T08:26:47;100910.00;;;23.51;39.65
71344;BME280;59146;43.850;25.948;2022-09-14T08:29:15;100936.66;;;23.51;38.70
71344;BME280;59146;43.850;25.948;2022-09-14T08:31:41;100939.31;;;23.51;39.69
71344;BME280;59146;43.850;25.948;2022-09-14T08:34:08;100905.00;;;23.56;40.05
71344;BME280;59146;43.850;25.948;2022-09-14T08:36:39;100803.00;;;22.98;39.69
71344;BME280;59146;43.850;25.948;2022-09-14T08:39:06;100894.19;;;23.49;39.83
71344;BME280;59146;43.850;25.948;2022-09-14T08:41:58;100905.81;;;23.56;39.86
71344;BME280;59146;43.850;25.948;2022-09-14T08:44:37;100909.00;;;23.68;39.30
71344;BME280;59146;43.850;25.948;2022-09-14T08:52:02;100856.66;;;23.67;38.74
71344;BME280;59146;43.850;25.948;2022-09-14T08:54:30;100901.50;;;24.04;38.39
71344;BME280;59146;43.850;25.948;2022-09-14T08:59:43;100896.78;;;24.22;38.89
71344;BME280;59146;43.850;25.948;2022-09-14T09:05:47;100902.09;;;24.30;38.04
71344;BME280;59146;43.850;25.948;2022-09-14T09:10:42;100888.19;;;24.51;38.77
71344;BME280;59146;43.850;25.948;2022-09-14T09:13:15;100916.13;;;24.79;38.45
71344;BME280;59146;43.850;25.948;2022-09-14T09:15:51;100874.47;;;24.54;38.24
71344;BME280;59146;43.850;25.948;2022-09-14T09:18:35;100890.28;;;24.71;38.14
71344;BME280;59146;43.850;25.948;2022-09-14T09:21:14;100877.06;;;24.31;37.45
71344;BME280;59146;43.850;25.948;2022-09-14T09:23:41;100916.50;;;24.60;37.44
71344;BME280;59146;43.850;25.948;2022-09-14T09:26:18;100795.16;;;24.31;37.25
71344;BME280;59146;43.850;25.948;2022-09-14T09:28:48;100858.94;;;24.96;36.69
71344;BME280;59146;43.850;25.948;2022-09-14T09:31:15;100872.81;;;24.91;37.06
71344;BME280;59146;43.850;25.948;2022-09-14T09:33:43;100916.44;;;24.84;37.34
71344;BME280;59146;43.850;25.948;2022-09-14T09:36:12;100818.25;;;24.47;36.21
71344;BME280;59146;43.850;25.948;2022-09-14T09:38:38;100853.47;;;24.51;36.87
71344;BME280;59146;43.850;25.948;2022-09-14T09:41:18;100909.44;;;25.13;36.22
71344;BME280;59146;43.850;25.948;2022-09-14T09:44:05;100877.38;;;25.13;35.44
71344;BME280;59146;43.850;25.948;2022-09-14T09:46:36;100790.38;;;24.80;36.10
71344;BME280;59146;43.850;25.948;2022-09-14T09:49:14;100861.78;;;25.40;34.62
71344;BME280;59146;43.850;25.948;2022-09-14T09:51:40;100851.25;;;25.46;33.43
71344;BME280;59146;43.850;25.948;2022-09-14T09:56:49;100857.34;;;25.32;33.27
71344;BME280;59146;43.850;25.948;2022-09-14T10:01:56;100810.03;;;25.33;33.43
71344;BME280;59146;43.850;25.948;2022-09-14T10:05:04;100841.38;;;25.47;33.87
71344;BME280;59146;43.850;25.948;2022-09-14T10:10:23;100857.72;;;25.66;33.04
71344;BME280;59146;43.850;25.948;2022-09-14T10:12:53;100890.06;;;25.79;33.27
71344;BME280;59146;43.850;25.948;2022-09-14T10:15:28;100868.59;;;25.50;32.38
71344;BME280;59146;43.850;25.948;2022-09-14T10:18:00;100828.81;;;25.24;33.47
71344;BME280;59146;43.850;25.948;2022-09-14T10:20:29;100850.41;;;25.46;32.79
71344;BME280;59146;43.850;25.948;2022-09-14T10:22:54;100878.91;;;25.76;32.51
71344;BME280;59146;43.850;25.948;2022-09-14T10:25:24;100828.47;;;25.28;33.27
71344;BME280;59146;43.850;25.948;2022-09-14T10:30:27;100842.09;;;25.78;32.58
71344;BME280;59146;43.850;25.948;2022-09-14T10:35:22;100837.31;;;26.02;32.27
71344;BME280;59146;43.850;25.948;2022-09-14T10:38:17;100868.06;;;26.21;30.98
71344;BME280;59146;43.850;25.948;2022-09-14T10:40:54;100798.00;;;25.88;31.07
71344;BME280;59146;43.850;25.948;2022-09-14T10:43:37;100789.69;;;26.13;30.28
71344;BME280;59146;43.850;25.948;2022-09-14T10:46:11;100842.13;;;26.36;31.38
71344;BME280;59146;43.850;25.948;2022-09-14T10:48:56;100874.06;;;26.38;30.56
71344;BME280;59146;43.850;25.948;2022-09-14T10:56:59;100831.38;;;26.51;31.44
71344;BME280;59146;43.850;25.948;2022-09-14T11:02:14;100838.03;;;26.55;30.42
71344;BME280;59146;43.850;25.948;2022-09-14T11:07:29;100838.13;;;26.61;30.18
71344;BME280;59146;43.850;25.948;2022-09-14T11:10:14;100804.59;;;26.51;30.17
71344;BME280;59146;43.850;25.948;2022-09-14T11:13:16;100798.63;;;26.34;30.83
71344;BME280;59146;43.850;25.948;2022-09-14T11:16:08;100822.75;;;26.70;31.07
71344;BME280;59146;43.850;25.948;2022-09-14T11:18:54;100810.19;;;27.06;29.82
71344;BME280;59146;43.850;25.948;2022-09-14T11:24:13;100814.34;;;26.73;29.79
71344;BME280;59146;43.850;25.948;2022-09-14T11:26:46;100811.34;;;26.97;29.84
71344;BME280;59146;43.850;25.948;2022-09-14T11:29:25;100695.78;;;26.50;29.50
71344;BME280;59146;43.850;25.948;2022-09-14T11:31:56;100695.84;;;26.35;29.32
71344;BME280;59146;43.850;25.948;2022-09-14T11:34:27;100798.16;;;27.02;28.89
71344;BME280;59146;43.850;25.948;2022-09-14T11:36:58;100737.06;;;26.91;29.36
71344;BME280;59146;43.850;25.948;2022-09-14T11:39:31;100760.13;;;26.92;29.69
71344;BME280;59146;43.850;25.948;2022-09-14T11:42:01;100744.75;;;26.80;30.29
71344;BME280;59146;43.850;25.948;2022-09-14T11:44:35;100641.72;;;26.40;29.18
71344;BME280;59146;43.850;25.948;2022-09-14T11:52:31;100693.53;;;26.89;28.91
71344;BME280;59146;43.850;25.948;2022-09-14T11:54:58;100733.16;;;27.21;29.49
71344;BME280;59146;43.850;25.948;2022-09-14T11:57:32;100709.97;;;27.07;29.26
71344;BME280;59146;43.850;25.948;2022-09-14T12:12:39;100736.06;;;27.20;28.09
71344;BME280;59146;43.850;25.948;2022-09-14T12:25:36;100722.59;;;27.69;29.27
71344;BME280;59146;43.850;25.948;2022-09-14T12:28:27;100755.91;;;27.81;30.37
71344;BME280;59146;43.850;25.948;2022-09-14T12:36:03;100745.34;;;27.45;28.94
71344;BME280;59146;43.850;25.948;2022-09-14T12:46:02;100737.88;;;27.40;29.58
71344;BME280;59146;43.850;25.948;2022-09-14T13:04:36;100704.13;;;27.52;28.22
71344;BME280;59146;43.850;25.948;2022-09-14T13:07:12;100687.50;;;27.36;27.52
71344;BME280;59146;43.850;25.948;2022-09-14T13:09:45;100720.88;;;27.61;28.26
71344;BME280;59146;43.850;25.948;2022-09-14T13:12:12;100698.41;;;27.62;28.78
71344;BME280;59146;43.850;25.948;2022-09-14T13:14:52;100737.75;;;27.83;28.57
71344;BME280;59146;43.850;25.948;2022-09-14T13:17:19;100722.84;;;27.80;28.51
71344;BME280;59146;43.850;25.948;2022-09-14T13:19:59;100722.91;;;27.93;29.01
71344;BME280;59146;43.850;25.948;2022-09-14T13:22:28;100710.09;;;27.89;28.75
71344;BME280;59146;43.850;25.948;2022-09-14T13:24:56;100672.41;;;27.69;29.21
71344;BME280;59146;43.850;25.948;2022-09-14T13:27:24;100686.47;;;27.65;28.71
71344;BME280;59146;43.850;25.948;2022-09-14T13:30:18;100733.53;;;27.74;29.52
71344;BME280;59146;43.850;25.948;2022-09-14T13:32:46;100729.78;;;27.62;28.58
71344;BME280;59146;43.850;25.948;2022-09-14T13:35:35;100669.06;;;27.26;28.69
71344;BME280;59146;43.850;25.948;2022-09-14T13:38:26;100732.38;;;27.83;29.43
71344;BME280;59146;43.850;25.948;2022-09-14T13:40:55;100707.19;;;27.84;29.34
71344;BME280;59146;43.850;25.948;2022-09-14T13:43:28;100705.16;;;27.92;28.97
71344;BME280;59146;43.850;25.948;2022-09-14T13:45:54;100715.31;;;27.97;29.91
71344;BME280;59146;43.850;25.948;2022-09-14T13:48:20;100696.56;;;27.63;29.07
71344;BME280;59146;43.850;25.948;2022-09-14T13:50:50;100691.16;;;27.28;30.12
71344;BME280;59146;43.850;25.948;2022-09-14T13:53:42;100745.97;;;27.75;28.68
71344;BME280;59146;43.850;25.948;2022-09-14T13:56:30;100741.34;;;27.62;30.00
71344;BME280;59146;43.850;25.948;2022-09-14T14:01:37;100736.00;;;27.69;30.59
71344;BME280;59146;43.850;25.948;2022-09-14T14:04:03;100668.16;;;27.40;30.93
71344;BME280;59146;43.850;25.948;2022-09-14T14:06:31;100681.38;;;27.14;30.16
71344;BME280;59146;43.850;25.948;2022-09-14T14:08:59;100705.50;;;27.14;30.37
71344;BME280;59146;43.850;25.948;2022-09-14T14:14:24;100692.75;;;26.95;30.62
71344;BME280;59146;43.850;25.948;2022-09-14T14:19:34;100731.31;;;27.22;30.30
71344;BME280;59146;43.850;25.948;2022-09-14T14:24:41;100713.38;;;27.22;30.40
71344;BME280;59146;43.850;25.948;2022-09-14T14:29:58;100703.44;;;27.16;30.18
71344;BME280;59146;43.850;25.948;2022-09-14T14:32:24;100675.53;;;27.11;30.43
71344;BME280;59146;43.850;25.948;2022-09-14T14:34:49;100634.78;;;26.94;29.52
71344;BME280;59146;43.850;25.948;2022-09-14T14:37:18;100663.59;;;27.13;29.67
71344;BME280;59146;43.850;25.948;2022-09-14T14:39:43;100660.53;;;27.16;30.19
71344;BME280;59146;43.850;25.948;2022-09-14T14:42:09;100701.22;;;27.47;29.73
71344;BME280;59146;43.850;25.948;2022-09-14T14:44:35;100683.53;;;27.04;30.19
71344;BME280;59146;43.850;25.948;2022-09-14T14:47:00;100692.31;;;27.19;30.02
71344;BME280;59146;43.850;25.948;2022-09-14T14:49:26;100698.06;;;27.37;31.00
71344;BME280;59146;43.850;25.948;2022-09-14T14:51:51;100704.63;;;27.35;30.58
71344;BME280;59146;43.850;25.948;2022-09-14T14:54:18;100689.00;;;27.17;30.58
71344;BME280;59146;43.850;25.948;2022-09-14T14:56:45;100658.00;;;27.08;31.01
71344;BME280;59146;43.850;25.948;2022-09-14T15:01:46;100700.22;;;27.00;30.45
71344;BME280;59146;43.850;25.948;2022-09-14T15:04:12;100698.63;;;26.84;30.99
71344;BME280;59146;43.850;25.948;2022-09-14T15:06:38;100650.53;;;26.76;31.52
71344;BME280;59146;43.850;25.948;2022-09-14T15:09:08;100714.44;;;27.28;30.96
71344;BME280;59146;43.850;25.948;2022-09-14T15:11:38;100660.59;;;26.95;31.59
71344;BME280;59146;43.850;25.948;2022-09-14T15:14:08;100681.38;;;27.14;31.22
71344;BME280;59146;43.850;25.948;2022-09-14T15:16:35;100681.63;;;27.26;30.82
71344;BME280;59146;43.850;25.948;2022-09-14T15:19:00;100689.25;;;27.22;31.03
71344;BME280;59146;43.850;25.948;2022-09-14T15:21:26;100657.50;;;26.98;31.68
71344;BME280;59146;43.850;25.948;2022-09-14T15:23:51;100689.84;;;27.18;31.10
71344;BME280;59146;43.850;25.948;2022-09-14T15:26:17;100640.94;;;26.88;31.07